sensor_id;sensor_type;location;lat;lon;timestamp;pressure;altitude;pressure_sealevel;temperature;humidity
19759;BME280;10038;42.662;23.278;2023-09-08T00:02:22;163911.53;;;19.76;80.43
19759;BME280;10038;42.662;23.278;2023-09-08T00:04:49;163918.22;;;19.79;80.17
19759;BME280;10038;42.662;23.278;2023-09-08T00:07:16;163773.28;;;19.24;79.83
19759;BME280;10038;42.662;23.278;2023-09-08T00:09:43;163875.28;;;19.63;80.12
19759;BME280;10038;42.662;23.278;2023-09-08T00:12:10;163890.06;;;19.68;79.83
19759;BME280;10038;42.662;23.278;2023-09-08T00:14:38;163868.59;;;19.60;79.47
19759;BME280;10038;42.662;23.278;2023-09-08T00:17:05;163892.75;;;19.69;77.83
19759;BME280;10038;42.662;23.278;2023-09-08T00:19:32;163896.75;;;19.71;77.03
19759;BME280;10038;42.662;23.278;2023-09-08T00:21:59;163887.34;;;19.67;74.41
19759;BME280;10038;42.662;23.278;2023-09-08T00:24:26;163907.50;;;19.75;73.95
19759;BME280;10038;42.662;23.278;2023-09-08T00:26:53;163633.81;;;18.72;72.73
19759;BME280;10038;42.662;23.278;2023-09-08T00:29:20;163853.84;;;19.55;72.43
19759;BME280;10038;42.662;23.278;2023-09-08T00:31:48;163890.06;;;19.68;72.35
19759;BME280;10038;42.662;23.278;2023-09-08T00:34:15;163884.69;;;19.66;72.71
19759;BME280;10038;42.662;23.278;2023-09-08T00:36:42;163822.97;;;19.43;72.55
19759;BME280;10038;42.662;23.278;2023-09-08T00:39:09;163871.28;;;19.61;71.72
19759;BME280;10038;42.662;23.278;2023-09-08T00:41:35;163876.66;;;19.63;71.11
19759;BME280;10038;42.662;23.278;2023-09-08T00:44:02;163659.31;;;18.81;71.18
19759;BME280;10038;42.662;23.278;2023-09-08T00:46:30;163869.94;;;19.61;71.19
19759;BME280;10038;42.662;23.278;2023-09-08T00:48:58;163873.94;;;19.62;70.92
19759;BME280;10038;42.662;23.278;2023-09-08T00:51:25;163578.88;;;18.51;70.34
19759;BME280;10038;42.662;23.278;2023-09-08T00:53:53;163892.75;;;19.69;69.71
19759;BME280;10038;42.662;23.278;2023-09-08T00:56:20;163903.47;;;19.73;69.55
19759;BME280;10038;42.662;23.278;2023-09-08T00:58:47;163916.88;;;19.78;69.41
19759;BME280;10038;42.662;23.278;2023-09-08T01:01:14;163927.63;;;19.82;69.17
19759;BME280;10038;42.662;23.278;2023-09-08T01:03:42;163691.47;;;18.94;69.23
19759;BME280;10038;42.662;23.278;2023-09-08T01:06:11;163938.34;;;19.86;69.37
19759;BME280;10038;42.662;23.278;2023-09-08T01:08:39;163927.63;;;19.82;69.18
19759;BME280;10038;42.662;23.278;2023-09-08T01:11:06;163943.75;;;19.88;69.49
19759;BME280;10038;42.662;23.278;2023-09-08T01:13:33;163923.56;;;19.81;70.36
19759;BME280;10038;42.662;23.278;2023-09-08T01:16:01;163900.75;;;19.72;71.22
19759;BME280;10038;42.662;23.278;2023-09-08T01:18:28;163907.50;;;19.75;71.40
19759;BME280;10038;42.662;23.278;2023-09-08T01:21:33;163876.66;;;19.63;71.71
19759;BME280;10038;42.662;23.278;2023-09-08T01:24:21;163884.69;;;19.66;71.68
19759;BME280;10038;42.662;23.278;2023-09-08T01:26:56;163884.69;;;19.66;71.62
19759;BME280;10038;42.662;23.278;2023-09-08T01:29:23;163835.03;;;19.48;72.08
19759;BME280;10038;42.662;23.278;2023-09-08T01:31:51;163878.00;;;19.64;72.26
19759;BME280;10038;42.662;23.278;2023-09-08T01:34:18;163875.28;;;19.63;72.51
19759;BME280;10038;42.662;23.278;2023-09-08T01:36:46;163511.78;;;18.26;72.85
19759;BME280;10038;42.662;23.278;2023-09-08T01:39:12;163860.53;;;19.57;73.37
19759;BME280;10038;42.662;23.278;2023-09-08T01:41:39;163849.78;;;19.53;73.72
19759;BME280;10038;42.662;23.278;2023-09-08T01:44:08;163840.44;;;19.50;74.16
19759;BME280;10038;42.662;23.278;2023-09-08T01:46:35;163828.31;;;19.45;74.34
19759;BME280;10038;42.662;23.278;2023-09-08T01:49:04;163825.66;;;19.44;75.14
19759;BME280;10038;42.662;23.278;2023-09-08T01:51:30;163796.09;;;19.33;76.08
19759;BME280;10038;42.662;23.278;2023-09-08T01:53:57;163769.25;;;19.23;76.70
19759;BME280;10038;42.662;23.278;2023-09-08T01:56:24;163769.25;;;19.23;76.59
19759;BME280;10038;42.662;23.278;2023-09-08T01:58:51;163753.19;;;19.17;77.20
19759;BME280;10038;42.662;23.278;2023-09-08T02:01:19;163758.53;;;19.19;77.07
19759;BME280;10038;42.662;23.278;2023-09-08T02:03:46;163763.88;;;19.21;76.87
19759;BME280;10038;42.662;23.278;2023-09-08T02:06:13;163762.53;;;19.20;77.07
19759;BME280;10038;42.662;23.278;2023-09-08T02:08:40;163742.44;;;19.13;77.62
19759;BME280;10038;42.662;23.278;2023-09-08T02:11:07;163735.72;;;19.10;78.52
19759;BME280;10038;42.662;23.278;2023-09-08T02:13:34;163720.97;;;19.05;79.21
19759;BME280;10038;42.662;23.278;2023-09-08T02:16:00;163691.47;;;18.94;79.77
19759;BME280;10038;42.662;23.278;2023-09-08T02:18:29;163687.47;;;18.92;80.46
19759;BME280;10038;42.662;23.278;2023-09-08T02:20:55;163664.66;;;18.83;81.38
19759;BME280;10038;42.662;23.278;2023-09-08T02:23:22;163608.31;;;18.62;81.66
19759;BME280;10038;42.662;23.278;2023-09-08T02:25:49;163627.13;;;18.69;81.84
19759;BME280;10038;42.662;23.278;2023-09-08T02:28:16;163616.38;;;18.65;82.11
19759;BME280;10038;42.662;23.278;2023-09-08T02:30:43;163621.75;;;18.67;82.59
19759;BME280;10038;42.662;23.278;2023-09-08T02:33:09;163277.22;;;17.38;82.75
19759;BME280;10038;42.662;23.278;2023-09-08T02:35:38;163617.72;;;18.66;83.48
19759;BME280;10038;42.662;23.278;2023-09-08T02:38:05;163326.81;;;17.56;83.54
19759;BME280;10038;42.662;23.278;2023-09-08T02:40:32;163589.56;;;18.55;84.28
19759;BME280;10038;42.662;23.278;2023-09-08T02:43:00;163573.47;;;18.49;84.76
19759;BME280;10038;42.662;23.278;2023-09-08T02:45:27;163574.81;;;18.50;84.92
19759;BME280;10038;42.662;23.278;2023-09-08T02:47:54;163565.38;;;18.46;85.63
19759;BME280;10038;42.662;23.278;2023-09-08T02:50:21;163405.88;;;17.86;86.05
19759;BME280;10038;42.662;23.278;2023-09-08T02:52:50;163505.09;;;18.23;87.03
19759;BME280;10038;42.662;23.278;2023-09-08T02:55:16;163509.09;;;18.25;88.12
19759;BME280;10038;42.662;23.278;2023-09-08T02:57:43;163519.81;;;18.29;88.78
19759;BME280;10038;42.662;23.278;2023-09-08T03:00:11;163514.44;;;18.27;89.15
19759;BME280;10038;42.662;23.278;2023-09-08T03:02:38;163458.16;;;18.06;89.93
19759;BME280;10038;42.662;23.278;2023-09-08T03:05:05;163439.41;;;17.99;90.78
19759;BME280;10038;42.662;23.278;2023-09-08T03:07:32;163474.25;;;18.12;91.04
19759;BME280;10038;42.662;23.278;2023-09-08T03:10:05;163468.91;;;18.10;91.79
19759;BME280;10038;42.662;23.278;2023-09-08T03:12:32;163455.44;;;18.05;92.20
19759;BME280;10038;42.662;23.278;2023-09-08T03:15:00;163432.72;;;17.96;93.06
19759;BME280;10038;42.662;23.278;2023-09-08T03:17:27;163447.44;;;18.02;92.89
19759;BME280;10038;42.662;23.278;2023-09-08T03:19:54;163435.34;;;17.97;93.22
19759;BME280;10038;42.662;23.278;2023-09-08T03:22:21;163424.66;;;17.93;93.46
19759;BME280;10038;42.662;23.278;2023-09-08T03:24:50;163404.53;;;17.86;94.29
19759;BME280;10038;42.662;23.278;2023-09-08T03:27:19;163379.09;;;17.76;95.00
19759;BME280;10038;42.662;23.278;2023-09-08T03:29:45;163356.31;;;17.67;95.09
19759;BME280;10038;42.662;23.278;2023-09-08T03:32:12;163364.34;;;17.71;95.74
19759;BME280;10038;42.662;23.278;2023-09-08T03:34:39;163163.34;;;16.95;95.68
19759;BME280;10038;42.662;23.278;2023-09-08T03:37:06;163342.91;;;17.62;96.49
19759;BME280;10038;42.662;23.278;2023-09-08T03:39:33;163334.88;;;17.59;96.65
19759;BME280;10038;42.662;23.278;2023-09-08T03:42:01;163333.53;;;17.59;96.51
19759;BME280;10038;42.662;23.278;2023-09-08T03:44:29;163310.69;;;17.50;96.97
19759;BME280;10038;42.662;23.278;2023-09-08T03:46:56;163289.25;;;17.42;97.40
19759;BME280;10038;42.662;23.278;2023-09-08T03:49:22;163275.88;;;17.37;97.38
19759;BME280;10038;42.662;23.278;2023-09-08T03:51:49;163233.00;;;17.21;97.46
19759;BME280;10038;42.662;23.278;2023-09-08T03:54:16;163238.34;;;17.23;97.23
19759;BME280;10038;42.662;23.278;2023-09-08T03:56:43;163204.88;;;17.10;97.45
19759;BME280;10038;42.662;23.278;2023-09-08T03:59:10;163202.19;;;17.09;97.57
19759;BME280;10038;42.662;23.278;2023-09-08T04:01:38;163211.56;;;17.13;97.34
19759;BME280;10038;42.662;23.278;2023-09-08T04:04:05;163171.38;;;16.98;98.09
19759;BME280;10038;42.662;23.278;2023-09-08T04:06:32;163199.50;;;17.08;98.20
19759;BME280;10038;42.662;23.278;2023-09-08T04:08:59;163215.56;;;17.15;98.16
19759;BME280;10038;42.662;23.278;2023-09-08T04:11:26;163238.34;;;17.23;97.88
19759;BME280;10038;42.662;23.278;2023-09-08T04:13:53;163216.94;;;17.15;98.35
19759;BME280;10038;42.662;23.278;2023-09-08T04:16:20;163223.63;;;17.18;98.53
19759;BME280;10038;42.662;23.278;2023-09-08T04:18:48;163243.69;;;17.25;98.35
19759;BME280;10038;42.662;23.278;2023-09-08T04:21:15;163262.47;;;17.32;98.40
19759;BME280;10038;42.662;23.278;2023-09-08T04:23:41;163257.13;;;17.30;98.51
19759;BME280;10038;42.662;23.278;2023-09-08T04:26:08;163294.59;;;17.44;98.56
19759;BME280;10038;42.662;23.278;2023-09-08T04:28:36;163285.25;;;17.41;98.51
19759;BME280;10038;42.662;23.278;2023-09-08T04:31:03;163313.38;;;17.51;98.70
19759;BME280;10038;42.662;23.278;2023-09-08T04:33:30;163316.09;;;17.52;98.26
19759;BME280;10038;42.662;23.278;2023-09-08T04:35:58;163316.09;;;17.52;98.76
19759;BME280;10038;42.662;23.278;2023-09-08T04:38:25;163337.56;;;17.60;98.13
19759;BME280;10038;42.662;23.278;2023-09-08T04:40:52;163361.66;;;17.69;97.97
19759;BME280;10038;42.662;23.278;2023-09-08T04:43:18;163365.69;;;17.71;97.87
19759;BME280;10038;42.662;23.278;2023-09-08T04:45:45;163372.41;;;17.74;97.34
19759;BME280;10038;42.662;23.278;2023-09-08T04:48:12;163397.81;;;17.83;97.13
19759;BME280;10038;42.662;23.278;2023-09-08T04:50:39;163404.53;;;17.86;96.88
19759;BME280;10038;42.662;23.278;2023-09-08T04:53:07;163115.13;;;16.77;96.77
19759;BME280;10038;42.662;23.278;2023-09-08T04:55:34;163431.38;;;17.96;96.89
19759;BME280;10038;42.662;23.278;2023-09-08T04:58:01;163451.44;;;18.03;96.27
19759;BME280;10038;42.662;23.278;2023-09-08T05:00:27;163476.88;;;18.13;95.73
19759;BME280;10038;42.662;23.278;2023-09-08T05:02:54;163450.09;;;18.03;95.25
19759;BME280;10038;42.662;23.278;2023-09-08T05:05:21;163514.44;;;18.27;94.91
19759;BME280;10038;42.662;23.278;2023-09-08T05:07:48;163554.66;;;18.42;94.38
19759;BME280;10038;42.662;23.278;2023-09-08T05:10:17;163514.44;;;18.27;94.22
19759;BME280;10038;42.662;23.278;2023-09-08T05:12:44;163586.88;;;18.54;93.13
19759;BME280;10038;42.662;23.278;2023-09-08T05:15:11;163613.72;;;18.64;92.28
19759;BME280;10038;42.662;23.278;2023-09-08T05:17:40;163627.13;;;18.69;91.82
19759;BME280;10038;42.662;23.278;2023-09-08T05:20:08;163653.91;;;18.79;90.29
19759;BME280;10038;42.662;23.278;2023-09-08T05:22:35;163692.81;;;18.94;87.74
19759;BME280;10038;42.662;23.278;2023-09-08T05:25:02;163720.97;;;19.05;86.75
19759;BME280;10038;42.662;23.278;2023-09-08T05:27:31;163763.88;;;19.21;85.69
19759;BME280;10038;42.662;23.278;2023-09-08T05:29:57;163788.06;;;19.30;84.32
19759;BME280;10038;42.662;23.278;2023-09-08T05:32:25;163798.75;;;19.34;83.38
19759;BME280;10038;42.662;23.278;2023-09-08T05:34:51;163718.28;;;19.04;83.08
19759;BME280;10038;42.662;23.278;2023-09-08T05:37:18;163865.88;;;19.59;81.74
19759;BME280;10038;42.662;23.278;2023-09-08T05:39:45;163887.34;;;19.67;81.64
19759;BME280;10038;42.662;23.278;2023-09-08T05:42:12;163903.47;;;19.73;80.88
19759;BME280;10038;42.662;23.278;2023-09-08T05:44:40;163941.03;;;19.87;80.99
19759;BME280;10038;42.662;23.278;2023-09-08T05:47:07;163970.56;;;19.98;80.01
19759;BME280;10038;42.662;23.278;2023-09-08T05:49:34;163992.03;;;20.07;79.13
19759;BME280;10038;42.662;23.278;2023-09-08T05:52:01;164016.22;;;20.16;76.86
19759;BME280;10038;42.662;23.278;2023-09-08T05:54:28;164018.88;;;20.17;74.99
19759;BME280;10038;42.662;23.278;2023-09-08T05:56:55;164055.16;;;20.30;73.34
19759;BME280;10038;42.662;23.278;2023-09-08T05:59:22;164055.16;;;20.30;71.53
19759;BME280;10038;42.662;23.278;2023-09-08T06:01:50;164063.22;;;20.33;70.88
19759;BME280;10038;42.662;23.278;2023-09-08T06:04:17;164135.69;;;20.60;70.57
19759;BME280;10038;42.662;23.278;2023-09-08T06:06:44;164386.91;;;21.55;67.80
19759;BME280;10038;42.662;23.278;2023-09-08T06:09:11;164268.69;;;21.10;67.67
19759;BME280;10038;42.662;23.278;2023-09-08T06:11:40;164729.69;;;22.83;62.86
19759;BME280;10038;42.662;23.278;2023-09-08T06:14:07;164905.91;;;23.49;59.68
19759;BME280;10038;42.662;23.278;2023-09-08T06:16:33;165183.09;;;24.53;56.97
19759;BME280;10038;42.662;23.278;2023-09-08T06:19:02;165228.88;;;24.71;55.73
19759;BME280;10038;42.662;23.278;2023-09-08T06:21:29;165378.38;;;25.27;54.39
19759;BME280;10038;42.662;23.278;2023-09-08T06:23:56;165525.22;;;25.82;52.12
19759;BME280;10038;42.662;23.278;2023-09-08T06:26:23;165603.34;;;26.11;50.08
19759;BME280;10038;42.662;23.278;2023-09-08T06:29:04;165382.41;;;25.28;49.86
19759;BME280;10038;42.662;23.278;2023-09-08T06:31:31;165502.31;;;25.73;48.85
19759;BME280;10038;42.662;23.278;2023-09-08T06:33:58;165986.25;;;27.54;45.69
19759;BME280;10038;42.662;23.278;2023-09-08T06:36:26;165713.88;;;26.52;46.67
19759;BME280;10038;42.662;23.278;2023-09-08T06:38:53;165414.72;;;25.40;49.76
19759;BME280;10038;42.662;23.278;2023-09-08T06:41:20;165589.88;;;26.06;48.60
19759;BME280;10038;42.662;23.278;2023-09-08T06:43:48;165758.34;;;26.69;45.93
19759;BME280;10038;42.662;23.278;2023-09-08T06:46:15;165879.66;;;27.14;44.36
19759;BME280;10038;42.662;23.278;2023-09-08T06:48:42;166119.81;;;28.04;42.25
19759;BME280;10038;42.662;23.278;2023-09-08T06:51:09;166477.41;;;29.38;39.59
19759;BME280;10038;42.662;23.278;2023-09-08T06:53:37;166612.47;;;29.88;38.14
19759;BME280;10038;42.662;23.278;2023-09-08T06:56:04;166291.13;;;28.68;38.85
19759;BME280;10038;42.662;23.278;2023-09-08T06:58:31;166250.63;;;28.53;39.23
19759;BME280;10038;42.662;23.278;2023-09-08T07:00:58;166266.81;;;28.59;39.25
19759;BME280;10038;42.662;23.278;2023-09-08T07:03:24;166304.66;;;28.73;39.27
19759;BME280;10038;42.662;23.278;2023-09-08T07:05:52;166661.06;;;30.06;36.66
19759;BME280;10038;42.662;23.278;2023-09-08T07:08:19;166882.59;;;30.89;34.64
19759;BME280;10038;42.662;23.278;2023-09-08T07:10:51;166665.16;;;30.08;36.20
19759;BME280;10038;42.662;23.278;2023-09-08T07:13:18;166639.47;;;29.98;36.92
19759;BME280;10038;42.662;23.278;2023-09-08T07:15:45;166781.31;;;30.51;36.36
19759;BME280;10038;42.662;23.278;2023-09-08T07:18:12;166928.59;;;31.06;35.09
19759;BME280;10038;42.662;23.278;2023-09-08T07:20:39;167038.06;;;31.47;33.84
19759;BME280;10038;42.662;23.278;2023-09-08T07:23:06;166671.88;;;30.10;34.91
19759;BME280;10038;42.662;23.278;2023-09-08T07:25:33;166824.53;;;30.67;35.09
19759;BME280;10038;42.662;23.278;2023-09-08T07:28:01;166858.28;;;30.80;34.48
19759;BME280;10038;42.662;23.278;2023-09-08T07:30:28;166750.25;;;30.39;34.88
19759;BME280;10038;42.662;23.278;2023-09-08T07:32:55;166952.88;;;31.15;33.64
19759;BME280;10038;42.662;23.278;2023-09-08T07:35:23;167031.28;;;31.44;33.36
19759;BME280;10038;42.662;23.278;2023-09-08T07:37:50;166979.94;;;31.25;33.54
19759;BME280;10038;42.662;23.278;2023-09-08T07:40:17;166844.78;;;30.75;34.51
19759;BME280;10038;42.662;23.278;2023-09-08T07:42:43;167017.78;;;31.39;33.74
19759;BME280;10038;42.662;23.278;2023-09-08T07:45:12;167074.56;;;31.61;33.35
19759;BME280;10038;42.662;23.278;2023-09-08T07:47:39;167382.84;;;32.76;32.14
19759;BME280;10038;42.662;23.278;2023-09-08T07:50:20;167136.69;;;31.84;32.99
19759;BME280;10038;42.662;23.278;2023-09-08T07:52:47;167116.44;;;31.76;32.94
19759;BME280;10038;42.662;23.278;2023-09-08T07:55:15;167180.00;;;32.00;32.40
19759;BME280;10038;42.662;23.278;2023-09-08T07:57:42;167096.19;;;31.69;32.75
19759;BME280;10038;42.662;23.278;2023-09-08T08:00:10;167107.00;;;31.73;33.25
19759;BME280;10038;42.662;23.278;2023-09-08T08:02:42;167073.19;;;31.60;33.36
19759;BME280;10038;42.662;23.278;2023-09-08T08:05:09;166534.09;;;29.59;34.69
19759;BME280;10038;42.662;23.278;2023-09-08T08:07:38;166376.16;;;29.00;36.28
19759;BME280;10038;42.662;23.278;2023-09-08T08:10:06;166145.41;;;28.14;39.32
19759;BME280;10038;42.662;23.278;2023-09-08T08:12:33;166661.06;;;30.06;36.42
19759;BME280;10038;42.662;23.278;2023-09-08T08:14:59;166881.25;;;30.88;35.14
19759;BME280;10038;42.662;23.278;2023-09-08T08:17:26;166292.50;;;28.68;38.68
19759;BME280;10038;42.662;23.278;2023-09-08T08:19:57;166019.94;;;27.67;40.01
19759;BME280;10038;42.662;23.278;2023-09-08T08:22:24;166526.00;;;29.56;37.64
19759;BME280;10038;42.662;23.278;2023-09-08T08:24:51;167150.25;;;31.89;34.00
19759;BME280;10038;42.662;23.278;2023-09-08T08:27:18;167198.94;;;32.07;32.17
19759;BME280;10038;42.662;23.278;2023-09-08T08:29:45;166391.00;;;29.05;36.98
19759;BME280;10038;42.662;23.278;2023-09-08T08:32:12;165928.22;;;27.32;40.81
19759;BME280;10038;42.662;23.278;2023-09-08T08:34:38;166063.06;;;27.83;40.27
19759;BME280;10038;42.662;23.278;2023-09-08T08:37:07;165949.84;;;27.40;40.72
19759;BME280;10038;42.662;23.278;2023-09-08T08:39:33;166272.22;;;28.61;37.92
19759;BME280;10038;42.662;23.278;2023-09-08T08:42:06;166871.78;;;30.85;34.26
19759;BME280;10038;42.662;23.278;2023-09-08T08:44:34;167148.91;;;31.88;32.44
19759;BME280;10038;42.662;23.278;2023-09-08T08:47:02;167439.63;;;32.97;31.66
19759;BME280;10038;42.662;23.278;2023-09-08T08:49:30;167339.59;;;32.59;31.42
19759;BME280;10038;42.662;23.278;2023-09-08T08:51:59;167511.41;;;33.23;30.45
19759;BME280;10038;42.662;23.278;2023-09-08T08:54:30;167074.56;;;31.61;31.78
19759;BME280;10038;42.662;23.278;2023-09-08T08:56:57;166925.88;;;31.05;32.78
19759;BME280;10038;42.662;23.278;2023-09-08T08:59:25;167135.38;;;31.83;32.56
19759;BME280;10038;42.662;23.278;2023-09-08T09:01:54;167192.19;;;32.04;30.79
19759;BME280;10038;42.662;23.278;2023-09-08T09:04:21;166982.59;;;31.26;32.19
19759;BME280;10038;42.662;23.278;2023-09-08T09:06:49;166815.06;;;30.64;33.57
19759;BME280;10038;42.662;23.278;2023-09-08T09:09:16;167269.22;;;32.33;31.26
19759;BME280;10038;42.662;23.278;2023-09-08T09:11:44;167312.53;;;32.49;30.62
19759;BME280;10038;42.662;23.278;2023-09-08T09:14:11;167081.31;;;31.63;31.84
19759;BME280;10038;42.662;23.278;2023-09-08T09:16:39;167038.06;;;31.47;32.32
19759;BME280;10038;42.662;23.278;2023-09-08T09:19:06;167001.53;;;31.33;32.17
19759;BME280;10038;42.662;23.278;2023-09-08T09:21:42;166557.06;;;29.67;35.04
19759;BME280;10038;42.662;23.278;2023-09-08T09:24:14;166091.44;;;27.93;36.96
19759;BME280;10038;42.662;23.278;2023-09-08T09:26:40;166148.13;;;28.15;38.43
19759;BME280;10038;42.662;23.278;2023-09-08T09:29:13;166334.34;;;28.84;36.75
19759;BME280;10038;42.662;23.278;2023-09-08T09:31:50;166594.91;;;29.81;34.33
19759;BME280;10038;42.662;23.278;2023-09-08T09:34:18;166584.09;;;29.77;34.37
19759;BME280;10038;42.662;23.278;2023-09-08T09:36:46;166655.69;;;30.04;34.58
19759;BME280;10038;42.662;23.278;2023-09-08T09:39:16;166485.53;;;29.41;35.21
19759;BME280;10038;42.662;23.278;2023-09-08T09:41:44;166486.88;;;29.41;34.83
19759;BME280;10038;42.662;23.278;2023-09-08T09:44:12;166933.97;;;31.08;32.33
19759;BME280;10038;42.662;23.278;2023-09-08T09:46:43;167212.44;;;32.12;30.80
19759;BME280;10038;42.662;23.278;2023-09-08T09:49:10;166993.44;;;31.30;32.10
19759;BME280;10038;42.662;23.278;2023-09-08T09:51:40;166725.88;;;30.30;34.15
19759;BME280;10038;42.662;23.278;2023-09-08T09:54:08;166696.16;;;30.19;34.62
19759;BME280;10038;42.662;23.278;2023-09-08T09:56:37;166373.44;;;28.99;35.01
19759;BME280;10038;42.662;23.278;2023-09-08T09:59:04;166798.84;;;30.58;34.22
19759;BME280;10038;42.662;23.278;2023-09-08T10:01:33;166728.59;;;30.31;34.27
19759;BME280;10038;42.662;23.278;2023-09-08T10:04:02;166148.13;;;28.15;37.67
19759;BME280;10038;42.662;23.278;2023-09-08T10:06:31;165930.88;;;27.33;39.25
19759;BME280;10038;42.662;23.278;2023-09-08T10:08:59;166003.78;;;27.61;39.23
19759;BME280;10038;42.662;23.278;2023-09-08T10:11:29;165727.34;;;26.57;39.70
19759;BME280;10038;42.662;23.278;2023-09-08T10:13:58;165918.78;;;27.29;40.49
19759;BME280;10038;42.662;23.278;2023-09-08T10:16:27;166067.16;;;27.84;39.81
19759;BME280;10038;42.662;23.278;2023-09-08T10:18:58;165991.63;;;27.56;39.64
19759;BME280;10038;42.662;23.278;2023-09-08T10:21:26;165732.72;;;26.59;40.30
19759;BME280;10038;42.662;23.278;2023-09-08T10:23:59;165910.69;;;27.26;40.06
19759;BME280;10038;42.662;23.278;2023-09-08T10:26:31;165990.25;;;27.56;38.73
19759;BME280;10038;42.662;23.278;2023-09-08T10:29:01;166053.66;;;27.79;38.87
19759;BME280;10038;42.662;23.278;2023-09-08T10:31:29;166342.41;;;28.87;37.66
19759;BME280;10038;42.662;23.278;2023-09-08T10:33:58;166609.75;;;29.87;36.18
19759;BME280;10038;42.662;23.278;2023-09-08T10:36:24;166678.63;;;30.13;35.83
19759;BME280;10038;42.662;23.278;2023-09-08T10:38:51;166499.00;;;29.46;36.54
19759;BME280;10038;42.662;23.278;2023-09-08T10:41:27;166438.25;;;29.23;36.34
19759;BME280;10038;42.662;23.278;2023-09-08T10:43:58;166526.00;;;29.56;36.21
19759;BME280;10038;42.662;23.278;2023-09-08T10:46:28;166256.00;;;28.55;38.11
19759;BME280;10038;42.662;23.278;2023-09-08T10:49:02;165859.47;;;27.07;41.27
19759;BME280;10038;42.662;23.278;2023-09-08T10:51:29;165716.59;;;26.53;42.58
19759;BME280;10038;42.662;23.278;2023-09-08T10:53:56;165686.94;;;26.42;43.29
19759;BME280;10038;42.662;23.278;2023-09-08T10:56:27;165813.63;;;26.89;41.01
19759;BME280;10038;42.662;23.278;2023-09-08T10:58:55;166258.72;;;28.56;38.97
19759;BME280;10038;42.662;23.278;2023-09-08T11:01:22;166223.66;;;28.43;38.11
19759;BME280;10038;42.662;23.278;2023-09-08T11:03:52;166655.69;;;30.04;36.75
19759;BME280;10038;42.662;23.278;2023-09-08T11:06:21;166744.84;;;30.37;35.70
19759;BME280;10038;42.662;23.278;2023-09-08T11:08:49;166284.38;;;28.65;38.74
19759;BME280;10038;42.662;23.278;2023-09-08T11:11:18;165902.59;;;27.23;41.41
19759;BME280;10038;42.662;23.278;2023-09-08T11:13:45;165678.84;;;26.39;43.70
19759;BME280;10038;42.662;23.278;2023-09-08T11:16:13;165802.88;;;26.85;43.21
19759;BME280;10038;42.662;23.278;2023-09-08T11:18:41;165920.13;;;27.29;41.70
19759;BME280;10038;42.662;23.278;2023-09-08T11:21:09;165725.97;;;26.57;42.71
19759;BME280;10038;42.662;23.278;2023-09-08T11:23:38;165824.44;;;26.93;42.92
19759;BME280;10038;42.662;23.278;2023-09-08T11:26:06;165542.69;;;25.88;42.48
19759;BME280;10038;42.662;23.278;2023-09-08T11:28:34;166326.25;;;28.81;39.05
19759;BME280;10038;42.662;23.278;2023-09-08T11:31:01;166287.09;;;28.66;39.22
19759;BME280;10038;42.662;23.278;2023-09-08T11:33:33;166108.94;;;28.00;40.01
19759;BME280;10038;42.662;23.278;2023-09-08T11:36:11;165835.19;;;26.98;42.99
19759;BME280;10038;42.662;23.278;2023-09-08T11:38:40;165970.06;;;27.48;41.62
19759;BME280;10038;42.662;23.278;2023-09-08T11:41:09;166131.91;;;28.08;40.15
19759;BME280;10038;42.662;23.278;2023-09-08T11:43:36;165948.44;;;27.40;41.44
19759;BME280;10038;42.662;23.278;2023-09-08T11:46:03;166123.81;;;28.05;40.78
19759;BME280;10038;42.662;23.278;2023-09-08T11:48:31;166355.94;;;28.92;38.78
19759;BME280;10038;42.662;23.278;2023-09-08T11:50:59;166617.88;;;29.90;37.32
19759;BME280;10038;42.662;23.278;2023-09-08T11:53:25;166858.28;;;30.80;35.71
19759;BME280;10038;42.662;23.278;2023-09-08T11:55:54;167117.78;;;31.77;34.39
19759;BME280;10038;42.662;23.278;2023-09-08T11:58:22;166856.91;;;30.79;35.20
19759;BME280;10038;42.662;23.278;2023-09-08T12:00:49;166967.75;;;31.21;34.62
19759;BME280;10038;42.662;23.278;2023-09-08T12:03:17;166561.13;;;29.69;37.13
19759;BME280;10038;42.662;23.278;2023-09-08T12:05:44;166746.22;;;30.38;36.26
19759;BME280;10038;42.662;23.278;2023-09-08T12:08:11;166674.56;;;30.11;36.55
19759;BME280;10038;42.662;23.278;2023-09-08T12:10:39;166658.34;;;30.05;36.04
19759;BME280;10038;42.662;23.278;2023-09-08T12:13:07;166624.59;;;29.93;36.91
19759;BME280;10038;42.662;23.278;2023-09-08T12:15:35;166604.38;;;29.85;37.12
19759;BME280;10038;42.662;23.278;2023-09-08T12:18:04;166794.81;;;30.56;35.95
19759;BME280;10038;42.662;23.278;2023-09-08T12:20:32;166851.53;;;30.77;35.09
19759;BME280;10038;42.662;23.278;2023-09-08T12:23:00;166574.63;;;29.74;36.61
19759;BME280;10038;42.662;23.278;2023-09-08T12:25:28;166466.66;;;29.34;37.39
19759;BME280;10038;42.662;23.278;2023-09-08T12:27:56;166725.88;;;30.30;35.78
19759;BME280;10038;42.662;23.278;2023-09-08T12:30:24;166817.78;;;30.65;35.67
19759;BME280;10038;42.662;23.278;2023-09-08T12:32:56;166913.75;;;31.01;34.96
19759;BME280;10038;42.662;23.278;2023-09-08T12:35:23;167044.84;;;31.49;34.24
19759;BME280;10038;42.662;23.278;2023-09-08T12:37:56;166971.81;;;31.22;34.56
19759;BME280;10038;42.662;23.278;2023-09-08T12:40:24;167117.78;;;31.77;33.68
19759;BME280;10038;42.662;23.278;2023-09-08T12:42:51;167119.16;;;31.77;32.76
19759;BME280;10038;42.662;23.278;2023-09-08T12:45:19;167107.00;;;31.73;33.04